This is the latest recevied weather packets stored in our database for station/object VU25RK-13. If no packets are shown the sender has not sent any weather packets the latest 10 day(s).
| Time | Temp. | Humidity | Pressure | Rain* | Wind** | Luminosity | Snow |
|---|---|---|---|---|---|---|---|
| 1778163408 | 28.33° C | 51% | 1011.2 hPa | - | - | - | - |
| 1778162207 | 28.89° C | 48% | 1010.2 hPa | - | - | - | - |
| 1778157126 | 31.11° C | 41% | 1009.4 hPa | - | - | - | - |
| 1778155597 | 31.67° C | 34% | 1008.8 hPa | - | - | - | - |
| 1778154396 | 31.67° C | 34% | 1008.8 hPa | - | - | - | - |
| 1778152030 | 32.78° C | 32% | 1008.8 hPa | - | - | - | - |
| 1778150829 | 32.78° C | 32% | 1008.8 hPa | - | - | - | - |
| 1778149629 | 33.33° C | 32% | 1008.8 hPa | - | - | - | - |
| 1778148429 | 33.33° C | 32% | 1009.3 hPa | - | - | - | - |
| 1778147228 | 33.33° C | 32% | 1009.3 hPa | - | - | - | - |
| 1778147087 | 33.33° C | 32% | 1009.3 hPa | - | - | - | - |
| 1778143683 | 33.33° C | 31% | 1009.9 hPa | - | - | - | - |
| 1778142634 | 33.33° C | 31% | 1010 hPa | - | - | - | - |
| 1778141432 | 32.78° C | 33% | 1011 hPa | - | - | - | - |
| 1778140233 | 32.78° C | 33% | 1011 hPa | - | - | - | - |
| 1778139034 | 32.22° C | 33% | 1011 hPa | - | - | - | - |
| 1778137832 | 31.67° C | 36% | 1011.8 hPa | - | - | - | - |
| 1778136632 | 31.67° C | 36% | 1011.8 hPa | - | - | - | - |
| 1778135434 | 31.11° C | 36% | 1011.8 hPa | - | - | - | - |
| 1778096916 | 22.22° C | 89% | 1009.8 hPa | - | - | - | - |
| 1778096015 | 22.22° C | 89% | 1009.8 hPa | - | - | - | - |
| 1778095114 | 23.33° C | 86% | 1010 hPa | - | - | - | - |
| 1778094214 | 23.33° C | 82% | 1010.5 hPa | - | - | - | - |
| 1778093312 | 23.33° C | 81% | 1010.5 hPa | - | - | - | - |
| 1778092412 | 23.33° C | 81% | 1010.5 hPa | - | - | - | - |
* Rain since midnight (hover to see other rain measurements)
** Current wind speed in m/s (hover to see current wind gust speed)